Flight Track Log - Related Links

Times and Time Zones

All times are in EDT time to prevent confusion due to time zone crossing. See the FLG3729 flight status page for this flight to view local times or setup timezone preferences in your user account.

Time Position Orientation Groundspeed Altitude Reporting Facility
EDT Latitude Longitude Course Direction KTS MPH feet Rate Location/Type
Wed 06:01:41 AM 42.7653 -73.8061 283° West 163 188 1,100  Level Boston Center
Wed 06:02:17 AM 42.7944 -73.8153 347° North 179 206 2,500 2,202 Climbing Boston Center
Wed 06:03:30 AM 42.8500 -73.8731 323° Northwest 224 258 5,100 2,707 Climbing Boston Center
Wed 06:04:30 AM 42.9139 -73.9256 329° Northwest 242 278 8,500 2,750 Climbing Boston Center
Wed 06:05:30 AM 42.9717 -73.9725 329° Northwest 264 304 10,600 1,600 Climbing Boston Center
Wed 06:06:00 AM 42.8465 -74.4122 283° West  Level FlightAware Approximate
Wed 06:06:30 AM 43.0200 -74.0786 302° West 295 339 11,700  Level Boston Center
Wed 06:07:30 AM 43.0286 -74.2011 276° West 330 380 12,700 1,250 Climbing Boston Center
Wed 06:08:30 AM 43.0408 -74.3547 276° West 369 425 14,200 1,550 Climbing Boston Center
Wed 06:09:30 AM 43.0528 -74.4972 277° West 374 430 15,800 1,500 Climbing Boston Center
Wed 06:10:30 AM 43.0628 -74.6369 276° West 374 430 17,200 1,450 Climbing Boston Center
Wed 06:11:30 AM 43.0706 -74.7764 274° West 374 430 18,700 1,200 Climbing Boston Center
Wed 06:12:30 AM 43.0789 -74.8733 277° West 374 430 19,600 1,200 Climbing Boston Center
Wed 06:13:30 AM 43.0878 -75.0386 274° West 369 425 21,100 1,300 Climbing Boston Center
Wed 06:14:30 AM 43.0992 -75.1786 276° West 369 425 22,200 1,100 Climbing Boston Center
Wed 06:15:30 AM 43.1081 -75.3183 275° West 369 425 23,300 950 Climbing Boston Center
Wed 06:16:30 AM 43.1169 -75.4639 275° West 379 436 24,100 750 Climbing Boston Center
Wed 06:17:30 AM 43.1253 -75.6122 274° West 386 444 24,800 650 Climbing Boston Center
Wed 06:18:30 AM 43.1356 -75.7608 275° West 396 456 25,400 600 Climbing Boston Center
Wed 06:19:30 AM 43.1456 -75.9150 275° West 403 464 26,000 582 Climbing Boston Center
Wed 06:21:46 AM 43.1569 -76.2625 273° West 398 458 27,300 582 Climbing Cleveland Center
Wed 06:22:46 AM 43.1439 -76.4142 263° West 404 465 27,900 350 Climbing Cleveland Center
Wed 06:23:46 AM 43.1306 -76.5717 263° West 409 471 28,000 50 Climbing Cleveland Center
Wed 06:24:46 AM 43.1150 -76.7292 262° West 414 476 28,000  Level Cleveland Center
Wed 06:25:46 AM 43.0994 -76.8922 263° West 420 483 28,000  Level Cleveland Center
Wed 06:26:46 AM 43.0858 -77.0553 264° West 431 496 28,000  Level Cleveland Center
Wed 06:27:46 AM 43.0700 -77.2181 262° West 436 502 28,000  Level Cleveland Center
Wed 06:28:46 AM 43.0558 -77.3808 263° West 436 502 28,000  Level Cleveland Center
Wed 06:29:46 AM 43.0414 -77.5436 263° West 431 496 28,000  Level Cleveland Center
Wed 06:30:46 AM 43.0247 -77.7033 262° West 431 496 28,000  Level Cleveland Center
Wed 06:31:46 AM 43.0097 -77.8689 263° West 431 496 28,000  Level Cleveland Center
Wed 06:32:46 AM 42.9928 -78.0286 262° West 431 496 28,000  Level Cleveland Center
Wed 06:33:46 AM 42.9772 -78.1908 263° West 431 496 28,000  Level Cleveland Center
Wed 06:34:46 AM 42.9617 -78.3506 262° West 431 496 28,000  Level Cleveland Center
Wed 06:35:46 AM 42.9439 -78.5100 261° West 431 496 28,000  Level Cleveland Center
Wed 06:36:46 AM 42.9281 -78.6722 262° West 431 496 28,000  Level Cleveland Center
Wed 06:37:46 AM 42.9056 -78.8286 259° West 431 496 28,000  Level Cleveland Center
Wed 06:38:46 AM 42.8789 -79.0081 259° West 436 502 28,000  Level Cleveland Center
Wed 06:39:46 AM 42.8558 -79.1672 259° West 436 502 28,000  Level Cleveland Center
Wed 06:40:46 AM 42.8306 -79.3264 258° West 436 502 28,000  Level Cleveland Center
Wed 06:41:46 AM 42.8114 -79.4850 261° West 430 495 28,000  Level Cleveland Center
Wed 06:42:46 AM 42.7858 -79.6439 258° West 430 495 28,000  Level Cleveland Center
Wed 06:43:46 AM 42.7619 -79.8056 259° West 430 495 28,000  Level Cleveland Center
Wed 06:44:46 AM 42.7503 -79.9642 264° West 430 495 28,000  Level Cleveland Center
Wed 06:45:46 AM 42.7406 -80.1139 265° West 430 495 28,000  Level Cleveland Center
Wed 06:46:46 AM 42.7328 -80.2781 266° West 430 495 28,000  Level Cleveland Center
Wed 06:47:46 AM 42.7289 -80.4361 268° West 430 495 28,000  Level Cleveland Center
Wed 06:48:46 AM 42.7208 -80.5889 266° West 420 483 28,000 -200 Level Cleveland Center
Wed 06:49:46 AM 42.7144 -80.7414 267° West 410 472 27,600 -750 Descending Cleveland Center
Wed 06:50:46 AM 42.7058 -80.8883 265° West 401 461 26,500 -1,050 Descending Cleveland Center
Wed 06:51:46 AM 42.6906 -81.0381 262° West 396 456 25,500 -1,000 Descending Cleveland Center
Wed 06:52:46 AM 42.6733 -81.1903 261° West 396 456 24,500 -1,000 Descending Cleveland Center
Wed 06:53:46 AM 42.6536 -81.3342 259° West 387 445 23,500 -1,000 Descending Cleveland Center
Wed 06:54:46 AM 42.6381 -81.4750 262° West 392 451 22,500 -1,000 Descending Cleveland Center
Wed 06:55:46 AM 42.6222 -81.6186 262° West 387 445 21,500 -1,000 Descending Cleveland Center
Wed 06:56:46 AM 42.6064 -81.7594 261° West 387 445 20,500 -1,200 Descending Cleveland Center
Wed 06:57:46 AM 42.5906 -81.8806 260° West 379 436 19,100 -1,350 Descending Cleveland Center
Wed 06:58:46 AM 42.5722 -82.0156 260° West 373 429 17,800 -1,400 Descending Cleveland Center
Wed 06:59:46 AM 42.5578 -82.1531 262° West 368 423 16,300 -1,500 Descending Cleveland Center
Wed 07:00:46 AM 42.5414 -82.2825 260° West 368 423 14,800 -1,500 Descending Cleveland Center
Wed 07:01:46 AM 42.5250 -82.4089 260° West 358 412 13,300 -1,400 Descending Cleveland Center
Wed 07:02:46 AM 42.5083 -82.5378 260° West 353 406 12,000 -830 Descending Cleveland Center
Wed 07:03:20 AM 42.4839 -82.6186 248° West 341 392 12,000  Level Cleveland Center
Wed 07:04:21 AM 42.4422 -82.7356 244° Southwest 341 392 12,000  Level Cleveland Center
Wed 07:05:21 AM 42.4003 -82.8550 245° Southwest 340 391 12,000  Level Cleveland Center
Wed 07:06:28 AM 42.3561 -82.9772 244° Southwest 340 391 12,000  Level Cleveland Center
Wed 07:07:29 AM 42.3139 -83.0992 245° Southwest 338 389 12,000 -55 Level Cleveland Center
Wed 07:08:18 AM 42.3033 -83.1969 262° West 335 386 11,900 -577 Descending Cleveland Center
Wed 07:09:13 AM 42.2903 -83.3144 261° West 336 387 11,000 -614 Descending Cleveland Center
Wed 07:09:46 AM 42.2806 -83.3672 256° West 338 389 11,000 -82 Level Cleveland Center
Wed 07:10:26 AM 42.2639 -83.4481 254° West 282 325 10,900 -884 Descending Cleveland Center
Wed 07:11:21 AM 42.2086 -83.4958 213° Southwest 250 288 9,600 -1,617 Descending Cleveland Center
Wed 07:12:21 AM 42.1489 -83.5436 211° Southwest 241 277 7,800 -1,785 Descending Cleveland Center
Wed 07:13:22 AM 42.0936 -83.5886 211° Southwest 240 276 6,000 -1,313 Descending Cleveland Center
Wed 07:14:29 AM 42.0464 -83.5556 153° Southeast 220 253 5,000 -896 Descending Cleveland Center

Login

Don't have an account? Register now (free) for customized features, flight alerts, and more!